University of West Georgia, Georgia
Current Conditions -  °F | °C
As of 3:55 AM on Saturday 22 Nov 2014 (Local Time) from KPUJ Reporting Station
Clear Clear  
Wind Chill: 39°   Ceiling: Unl
Heat Index: 43°   Visibility: 10mi
Dew Point: 34°   Wind: 7mph
Humidity: 70%   Direction: 110°ESE
Pressure: 30.4"   Gusts: NA
Location:  33.5834°N, 85.1312°W
Report Text: KPUJ 220855Z AUTO 11006KT 10SM CLR 06/01 A3040 RMK AO2
Loading
Personal Weather Stations






























Interactive Weather Map New forecast layout! Learn more

10-Day Weather Forecast

Advertisements
Track Severe Weather on mobile